Time;durP1;ratioP1;P1;durP2;ratioP2;P2;SDS_P1;SDS_P2;PMS_P1;PMS_P2;Temp;Humidity;BMP_temperature;BMP_pressure;BME280_temperature;BME280_humidity;BME280_pressure;Samples;Min_cycle;Max_cycle;Signal;HPM_P1;HPM_P2
2022/03/03 00:02:07;;;;;;;9.40;6.07;;;8.10;54.00;;;;;;5087861;28;20195;-52
2022/03/03 00:04:35;;;;;;;7.87;5.73;;;8.10;54.00;;;;;;5082886;28;20232;-48
2022/03/03 00:07:02;;;;;;;9.07;5.73;;;8.00;53.90;;;;;;5088128;28;20269;-48
2022/03/03 00:09:30;;;;;;;10.40;6.50;;;8.00;54.10;;;;;;5087748;28;20684;-51
2022/03/03 00:11:58;;;;;;;12.30;7.23;;;8.00;54.40;;;;;;5087950;28;20668;-54
2022/03/03 00:14:25;;;;;;;9.50;5.60;;;8.00;54.60;;;;;;5083938;28;20219;-53
2022/03/03 00:16:52;;;;;;;8.67;5.77;;;8.00;54.60;;;;;;5083467;28;20213;-49
2022/03/03 00:19:19;;;;;;;8.33;5.53;;;7.90;54.60;;;;;;5084543;28;20224;-50
2022/03/03 00:21:46;;;;;;;7.33;5.33;;;7.90;54.80;;;;;;5094042;28;20271;-48
2022/03/03 00:24:13;;;;;;;10.67;5.30;;;7.90;55.10;;;;;;5082320;28;20199;-54
2022/03/03 00:26:42;;;;;;;6.90;4.43;;;7.80;55.10;;;;;;5082491;28;20197;-54
2022/03/03 00:29:09;;;;;;;9.30;5.50;;;7.80;55.10;;;;;;5085733;28;20693;-52
2022/03/03 00:31:36;;;;;;;6.57;5.10;;;7.90;55.40;;;;;;5084509;28;20211;-53
2022/03/03 00:34:03;;;;;;;6.47;4.50;;;7.90;55.40;;;;;;5089370;28;20203;-53
2022/03/03 00:36:30;;;;;;;11.10;5.47;;;7.90;55.50;;;;;;5098325;28;20212;-48
2022/03/03 00:38:57;;;;;;;6.33;4.87;;;7.90;55.50;;;;;;5092148;28;20203;-54
2022/03/03 00:41:25;;;;;;;7.87;5.10;;;7.90;55.40;;;;;;5089530;28;20200;-48
2022/03/03 00:43:53;;;;;;;9.17;5.20;;;7.90;55.50;;;;;;5103766;28;20355;-52
2022/03/03 00:46:20;;;;;;;7.03;4.83;;;7.90;56.20;;;;;;5090180;28;20268;-51
2022/03/03 00:48:47;;;;;;;7.80;4.50;;;7.90;55.60;;;;;;5084822;28;20199;-54
2022/03/03 00:51:15;;;;;;;6.90;4.03;;;7.90;55.60;;;;;;5089002;28;20203;-50
2022/03/03 00:53:42;;;;;;;6.80;4.40;;;7.90;55.60;;;;;;5082688;28;20204;-50
2022/03/03 00:56:09;;;;;;;8.97;5.00;;;7.90;55.70;;;;;;5100805;27;20552;-53
2022/03/03 00:58:36;;;;;;;8.13;4.73;;;7.90;55.70;;;;;;5087645;28;20203;-52
2022/03/03 01:01:05;;;;;;;10.67;5.47;;;7.90;55.70;;;;;;5087219;28;20195;-51
2022/03/03 01:03:32;;;;;;;9.20;5.97;;;7.90;55.90;;;;;;5086787;28;20199;-53
2022/03/03 01:05:59;;;;;;;8.83;4.80;;;7.90;56.00;;;;;;5085366;28;20228;-48
2022/03/03 01:08:26;;;;;;;8.57;4.90;;;7.90;56.00;;;;;;5084516;28;20188;-51
2022/03/03 01:10:53;;;;;;;5.17;3.90;;;7.90;56.10;;;;;;5087186;28;20196;-52
2022/03/03 01:13:22;;;;;;;6.53;4.23;;;7.90;56.00;;;;;;5093546;28;20283;-50
2022/03/03 01:15:49;;;;;;;9.57;5.20;;;7.90;56.00;;;;;;5087787;28;20622;-52
2022/03/03 01:18:18;;;;;;;7.50;4.00;;;7.90;56.20;;;;;;5086497;28;20647;-52
2022/03/03 01:20:45;;;;;;;7.10;4.30;;;7.80;56.10;;;;;;5081699;28;20574;-51
2022/03/03 01:23:12;;;;;;;5.63;4.07;;;7.80;56.20;;;;;;5083774;28;20196;-52
2022/03/03 01:25:39;;;;;;;7.17;4.03;;;7.70;56.30;;;;;;5105635;28;20215;-53
2022/03/03 01:28:06;;;;;;;6.90;4.37;;;7.70;56.40;;;;;;5089946;28;20199;-50
2022/03/03 01:30:34;;;;;;;6.17;4.40;;;7.70;56.50;;;;;;5091708;28;20206;-47
2022/03/03 01:33:01;;;;;;;5.77;4.20;;;7.70;56.70;;;;;;5087511;28;20593;-49
2022/03/03 01:35:29;;;;;;;6.80;4.30;;;7.80;56.70;;;;;;5103817;28;20207;-49
2022/03/03 01:37:56;;;;;;;6.23;4.03;;;7.80;56.70;;;;;;5086862;28;20208;-53
2022/03/03 01:40:25;;;;;;;3.80;3.23;;;7.70;56.70;;;;;;5093483;28;20286;-44
2022/03/03 01:42:53;;;;;;;8.73;4.93;;;7.70;57.30;;;;;;5093325;28;20196;-50
2022/03/03 01:45:20;;;;;;;4.93;3.50;;;7.70;56.80;;;;;;5086468;28;20193;-51
2022/03/03 01:47:48;;;;;;;3.90;3.27;;;7.70;56.80;;;;;;5086360;28;20250;-47
2022/03/03 01:50:15;;;;;;;5.20;3.60;;;7.70;56.90;;;;;;5093889;28;20204;-47
2022/03/03 01:52:44;;;;;;;7.60;4.73;;;7.70;57.00;;;;;;5087246;28;20211;-52
2022/03/03 01:55:11;;;;;;;7.33;4.60;;;7.60;57.10;;;;;;5085225;28;20683;-49
2022/03/03 01:57:39;;;;;;;7.57;4.60;;;7.60;57.20;;;;;;5086816;28;20208;-51
2022/03/03 02:00:08;;;;;;;5.47;4.00;;;7.60;57.30;;;;;;5082484;28;20641;-51
2022/03/03 02:02:39;;;;;;;6.57;4.07;;;7.60;57.30;;;;;;5086228;28;20196;-53
2022/03/03 02:05:08;;;;;;;7.00;3.90;;;7.60;57.40;;;;;;5089220;28;20784;-53
2022/03/03 02:07:35;;;;;;;8.50;4.17;;;7.60;57.40;;;;;;5090573;28;20227;-52
2022/03/03 02:10:05;;;;;;;6.10;4.30;;;7.60;57.40;;;;;;5083345;28;20206;-52
2022/03/03 02:12:32;;;;;;;4.93;3.50;;;7.60;57.50;;;;;;5093917;28;20196;-47
2022/03/03 02:15:00;;;;;;;4.13;3.13;;;7.60;57.50;;;;;;5093635;28;20256;-50
2022/03/03 02:17:27;;;;;;;4.30;2.70;;;7.60;57.50;;;;;;5085080;28;20257;-52
2022/03/03 02:19:54;;;;;;;6.10;3.20;;;7.60;57.50;;;;;;5089116;28;20590;-51
2022/03/03 02:22:22;;;;;;;4.47;3.23;;;7.60;57.60;;;;;;5101602;28;20241;-49
2022/03/03 02:24:50;;;;;;;5.10;3.83;;;7.60;57.60;;;;;;5092034;28;20193;-48
2022/03/03 02:27:17;;;;;;;6.63;3.40;;;7.60;57.80;;;;;;5078106;28;20285;-53
2022/03/03 02:29:45;;;;;;;4.53;3.50;;;7.60;57.80;;;;;;5092878;28;20250;-53
2022/03/03 02:32:12;;;;;;;4.40;3.50;;;7.60;57.80;;;;;;5086794;28;20579;-54
2022/03/03 02:34:47;;;;;;;3.93;3.13;;;7.60;57.90;;;;;;5089029;28;20564;-54
2022/03/03 02:37:14;;;;;;;4.40;3.07;;;7.60;57.90;;;;;;5093146;28;20596;-51
2022/03/03 02:39:43;;;;;;;6.07;3.83;;;7.60;58.00;;;;;;5098855;28;20222;-51
2022/03/03 02:42:10;;;;;;;6.13;3.63;;;7.60;58.20;;;;;;5076897;28;20189;-49
2022/03/03 02:44:37;;;;;;;4.67;3.30;;;7.60;58.30;;;;;;5100266;28;20208;-52
2022/03/03 02:47:05;;;;;;;5.47;3.60;;;7.60;58.40;;;;;;5091170;28;20605;-52
2022/03/03 02:49:32;;;;;;;4.17;3.70;;;7.60;58.40;;;;;;5094365;28;20215;-48
2022/03/03 02:51:59;;;;;;;4.27;3.03;;;7.60;58.50;;;;;;5085444;28;20203;-49
2022/03/03 02:54:27;;;;;;;4.57;3.10;;;7.50;58.50;;;;;;5091117;28;20204;-47
2022/03/03 02:59:39;;;;;;;3.73;2.83;;;7.50;58.70;;;;;;5111926;27;20198;-48
2022/03/03 03:02:07;;;;;;;5.00;2.87;;;7.50;58.70;;;;;;5088098;28;20211;-50
2022/03/03 03:04:34;;;;;;;6.97;2.90;;;7.50;58.70;;;;;;5087298;28;20230;-52
2022/03/03 03:07:01;;;;;;;3.67;2.50;;;7.60;58.90;;;;;;5077205;28;20226;-48
2022/03/03 03:09:28;;;;;;;4.07;2.50;;;7.50;58.90;;;;;;5081797;28;20244;-49
2022/03/03 03:11:57;;;;;;;2.60;2.30;;;7.50;58.90;;;;;;5078685;28;20215;-46
2022/03/03 03:14:24;;;;;;;3.07;2.10;;;7.60;59.00;;;;;;5095165;28;20189;-51
2022/03/03 03:16:51;;;;;;;4.70;2.57;;;7.60;59.00;;;;;;5090934;28;20208;-49
2022/03/03 03:19:18;;;;;;;2.80;2.43;;;7.60;59.00;;;;;;5094045;28;20606;-50
2022/03/03 03:21:45;;;;;;;4.17;2.80;;;7.50;59.00;;;;;;5084285;28;20215;-48
2022/03/03 03:24:12;;;;;;;2.97;2.67;;;7.50;59.10;;;;;;5087757;28;20197;-50
2022/03/03 03:26:40;;;;;;;2.60;2.27;;;7.50;59.30;;;;;;5084054;28;20675;-48
2022/03/03 03:29:08;;;;;;;8.40;4.00;;;7.50;59.30;;;;;;5080179;28;20271;-47
2022/03/03 03:31:36;;;;;;;3.70;2.90;;;7.50;59.40;;;;;;5078147;28;20603;-51
2022/03/03 03:34:03;;;;;;;3.40;2.87;;;7.50;59.40;;;;;;5087161;28;20205;-53
2022/03/03 03:36:30;;;;;;;3.80;2.80;;;7.50;59.40;;;;;;5091084;28;20193;-50
2022/03/03 03:38:58;;;;;;;3.83;3.00;;;7.50;59.40;;;;;;5086757;28;20208;-49
2022/03/03 03:41:25;;;;;;;3.17;2.70;;;7.40;59.50;;;;;;5095805;28;20599;-48
2022/03/03 03:43:52;;;;;;;4.93;3.20;;;7.40;59.50;;;;;;5088720;28;20198;-50
2022/03/03 03:46:20;;;;;;;6.07;3.27;;;7.40;59.70;;;;;;5091605;28;20242;-51
2022/03/03 03:48:48;;;;;;;3.23;2.80;;;7.30;59.80;;;;;;5091498;28;20196;-48
2022/03/03 03:51:15;;;;;;;2.67;2.30;;;7.30;59.80;;;;;;5085570;28;20634;-47
2022/03/03 03:53:42;;;;;;;2.60;2.30;;;7.30;59.80;;;;;;5089494;28;20197;-50
2022/03/03 03:56:09;;;;;;;3.97;2.73;;;7.30;59.90;;;;;;5091912;28;20196;-49
2022/03/03 03:58:37;;;;;;;4.13;3.33;;;7.30;60.00;;;;;;5098600;28;20225;-48
2022/03/03 04:01:04;;;;;;;3.67;2.63;;;7.40;60.00;;;;;;5084253;28;20560;-47
2022/03/03 04:03:32;;;;;;;3.33;2.10;;;7.40;60.10;;;;;;5082363;28;20280;-48
2022/03/03 04:05:59;;;;;;;3.40;2.00;;;7.40;60.00;;;;;;5081921;28;20266;-50
2022/03/03 04:08:26;;;;;;;2.23;2.00;;;7.40;60.00;;;;;;5072875;28;20202;-46
2022/03/03 04:10:53;;;;;;;3.00;2.20;;;7.40;60.00;;;;;;5077938;28;20269;-49
2022/03/03 04:13:21;;;;;;;2.60;2.40;;;7.50;60.00;;;;;;5074559;28;20678;-46
2022/03/03 04:15:48;;;;;;;2.87;2.13;;;7.50;60.10;;;;;;5087994;28;20278;-50
2022/03/03 04:18:16;;;;;;;2.10;1.90;;;7.50;60.00;;;;;;5084000;28;20211;-49
2022/03/03 04:20:44;;;;;;;2.47;2.27;;;7.50;60.10;;;;;;5084895;28;20210;-49
2022/03/03 04:23:11;;;;;;;4.80;2.90;;;7.50;60.10;;;;;;5073901;28;20193;-51
2022/03/03 04:25:38;;;;;;;3.33;2.30;;;7.50;60.20;;;;;;5079951;28;20277;-48
2022/03/03 04:28:06;;;;;;;5.03;2.70;;;7.50;60.20;;;;;;5073798;28;20196;-50
2022/03/03 04:30:34;;;;;;;3.97;2.60;;;7.50;60.10;;;;;;5075300;28;20214;-51
2022/03/03 04:33:01;;;;;;;3.83;2.80;;;7.50;60.10;;;;;;5074020;28;20219;-49
2022/03/03 04:35:29;;;;;;;3.20;2.40;;;7.50;60.20;;;;;;5106289;27;20213;-51
2022/03/03 04:37:57;;;;;;;3.17;2.20;;;7.40;60.10;;;;;;5080855;28;20753;-51
2022/03/03 04:40:25;;;;;;;2.30;2.10;;;7.40;60.20;;;;;;5079859;28;20198;-48
2022/03/03 04:42:52;;;;;;;3.80;2.40;;;7.40;60.30;;;;;;5074537;28;20203;-48
2022/03/03 04:45:19;;;;;;;2.43;2.23;;;7.30;60.30;;;;;;5086787;28;20194;-48
2022/03/03 04:47:46;;;;;;;3.17;2.37;;;7.30;60.50;;;;;;5097523;28;20295;-48
2022/03/03 04:50:13;;;;;;;2.90;2.60;;;7.30;60.60;;;;;;5091754;28;20199;-51
2022/03/03 04:52:40;;;;;;;3.30;2.53;;;7.30;60.60;;;;;;5088368;28;20559;-51
2022/03/03 04:55:10;;;;;;;3.80;3.10;;;7.30;60.60;;;;;;5086067;28;20279;-47
2022/03/03 04:57:37;;;;;;;5.97;3.57;;;7.20;60.70;;;;;;5116442;27;20624;-48
2022/03/03 05:00:06;;;;;;;5.50;3.50;;;7.20;60.80;;;;;;5073154;28;20196;-53
2022/03/03 05:02:33;;;;;;;4.53;3.30;;;7.10;60.90;;;;;;5084149;28;20697;-49
2022/03/03 05:05:00;;;;;;;9.17;4.30;;;7.20;61.00;;;;;;5079767;28;20568;-51
2022/03/03 05:07:27;;;;;;;4.23;3.07;;;7.20;61.20;;;;;;5086024;28;20598;-50
2022/03/03 05:09:55;;;;;;;5.20;3.10;;;7.10;61.10;;;;;;5081203;28;20241;-53
2022/03/03 05:12:24;;;;;;;7.53;3.53;;;7.20;61.30;;;;;;5086235;28;20220;-49
2022/03/03 05:14:51;;;;;;;4.30;2.97;;;7.20;61.30;;;;;;5094126;28;20204;-49
2022/03/03 05:17:18;;;;;;;4.97;3.03;;;7.20;61.20;;;;;;5080470;28;20195;-50
2022/03/03 05:19:45;;;;;;;3.73;3.20;;;7.20;61.30;;;;;;5105068;28;20210;-52
2022/03/03 05:22:12;;;;;;;4.13;3.30;;;7.20;61.40;;;;;;5078431;28;20199;-53
2022/03/03 05:24:39;;;;;;;4.80;3.80;;;7.50;61.70;;;;;;5077830;28;20203;-48
2022/03/03 05:27:07;;;;;;;4.43;3.50;;;7.20;61.50;;;;;;5082064;28;20194;-52
2022/03/03 05:29:36;;;;;;;8.00;4.60;;;7.20;61.40;;;;;;5087287;28;20239;-52
2022/03/03 05:32:04;;;;;;;6.53;4.13;;;7.10;61.60;;;;;;5089117;28;21076;-48
2022/03/03 05:34:31;;;;;;;5.60;3.90;;;7.10;61.70;;;;;;5090267;28;20554;-51
2022/03/03 05:36:58;;;;;;;4.77;3.33;;;7.10;61.90;;;;;;5082325;28;20277;-51
2022/03/03 05:39:27;;;;;;;5.17;3.30;;;7.00;61.90;;;;;;5085915;28;20208;-52
2022/03/03 05:41:55;;;;;;;3.60;2.90;;;7.00;62.10;;;;;;5101948;28;20812;-48
2022/03/03 05:44:24;;;;;;;5.43;3.00;;;7.00;62.10;;;;;;5090022;28;20209;-53
2022/03/03 05:46:52;;;;;;;6.07;3.57;;;7.00;62.20;;;;;;5081708;28;20514;-52
2022/03/03 05:49:20;;;;;;;4.00;2.80;;;7.00;62.30;;;;;;5080630;28;20227;-51
2022/03/03 05:51:47;;;;;;;5.13;2.97;;;6.90;62.40;;;;;;5088462;28;20211;-49
2022/03/03 05:54:14;;;;;;;2.70;2.50;;;6.90;62.60;;;;;;5078325;28;20289;-52
2022/03/03 05:56:46;;;;;;;3.33;2.67;;;6.90;62.80;;;;;;5082869;28;20207;-45
2022/03/03 05:59:15;;;;;;;3.57;2.60;;;6.90;63.00;;;;;;5081954;28;20272;-49
2022/03/03 06:01:43;;;;;;;2.87;2.40;;;6.90;63.20;;;;;;5077740;28;20706;-50
2022/03/03 06:04:15;;;;;;;5.97;3.53;;;6.90;63.30;;;;;;5074984;28;20243;-52
2022/03/03 06:06:54;;;;;;;4.53;3.13;;;7.00;63.40;;;;;;5075550;28;20264;-49
2022/03/03 06:09:25;;;;;;;3.93;2.53;;;7.00;63.50;;;;;;5079958;28;20698;-53
2022/03/03 06:12:02;;;;;;;4.53;2.60;;;7.00;63.60;;;;;;5091221;28;20189;-53
2022/03/03 06:14:37;;;;;;;4.57;3.00;;;7.00;63.80;;;;;;5087266;28;20191;-49
2022/03/03 06:17:05;;;;;;;4.10;2.70;;;7.00;63.90;;;;;;5083655;28;20201;-53
2022/03/03 06:19:40;;;;;;;4.47;2.90;;;7.00;64.10;;;;;;5075549;28;20236;-53
2022/03/03 06:22:08;;;;;;;5.43;3.37;;;7.10;64.20;;;;;;5078557;28;20629;-50
2022/03/03 06:24:35;;;;;;;4.93;3.23;;;7.10;64.30;;;;;;5083658;28;20225;-46
2022/03/03 06:27:03;;;;;;;5.57;3.20;;;7.10;64.30;;;;;;5080738;28;20229;-51
2022/03/03 06:29:31;;;;;;;5.80;3.50;;;7.10;64.40;;;;;;5079207;28;20201;-51
2022/03/03 06:31:58;;;;;;;4.33;2.97;;;7.10;64.40;;;;;;5074252;28;20281;-51
2022/03/03 06:34:26;;;;;;;5.00;3.20;;;7.10;64.40;;;;;;5095397;28;20686;-51
2022/03/03 06:36:54;;;;;;;5.97;3.97;;;7.20;64.50;;;;;;5084304;28;20208;-54
2022/03/03 06:39:21;;;;;;;4.70;3.43;;;7.30;64.60;;;;;;5074841;28;20217;-49
2022/03/03 06:41:49;;;;;;;6.73;3.90;;;7.30;64.70;;;;;;5080207;28;20270;-50
2022/03/03 06:44:16;;;;;;;8.00;3.73;;;7.30;64.80;;;;;;5081864;28;20196;-50
2022/03/03 06:46:43;;;;;;;6.30;3.30;;;7.30;64.90;;;;;;5095340;28;20307;-51
2022/03/03 06:49:11;;;;;;;4.73;3.33;;;7.20;65.00;;;;;;5096409;28;20187;-54
2022/03/03 06:51:41;;;;;;;7.33;4.20;;;7.30;65.10;;;;;;5084255;28;20204;-53
2022/03/03 06:54:14;;;;;;;7.57;4.57;;;7.30;65.20;;;;;;5099419;28;20195;-54
2022/03/03 06:56:47;;;;;;;6.37;4.07;;;7.30;65.60;;;;;;5090109;28;20203;-53
2022/03/03 06:59:17;;;;;;;4.20;3.70;;;7.20;65.70;;;;;;5088852;28;20233;-54
2022/03/03 07:01:46;;;;;;;7.90;4.37;;;7.30;66.00;;;;;;5089861;28;20225;-53
2022/03/03 07:04:14;;;;;;;8.57;4.63;;;7.30;66.10;;;;;;5071411;28;20225;-51
2022/03/03 07:06:42;;;;;;;10.53;4.37;;;7.30;66.30;;;;;;5088428;28;20537;-48
2022/03/03 07:09:12;;;;;;;7.10;4.10;;;7.30;66.50;;;;;;5121719;27;20202;-50
2022/03/03 07:11:41;;;;;;;5.20;3.87;;;7.30;66.60;;;;;;5092567;28;20551;-49
2022/03/03 07:14:09;;;;;;;7.33;4.03;;;7.30;66.70;;;;;;5095436;28;20204;-51
2022/03/03 07:16:41;;;;;;;6.17;3.97;;;7.30;66.70;;;;;;5099080;28;20251;-52
2022/03/03 07:19:19;;;;;;;6.73;3.93;;;7.30;66.80;;;;;;5094057;28;20207;-52
2022/03/03 07:22:02;;;;;;;7.67;4.93;;;7.20;66.80;;;;;;5100953;28;20381;-51
2022/03/03 07:24:33;;;;;;;8.97;4.77;;;7.20;67.10;;;;;;5095576;28;20212;-53
2022/03/03 07:27:04;;;;;;;7.33;4.57;;;7.20;67.70;;;;;;5089992;28;20272;-50
2022/03/03 07:29:33;;;;;;;6.63;4.00;;;7.20;68.10;;;;;;5095150;28;20197;-51
2022/03/03 07:32:05;;;;;;;7.37;4.00;;;7.20;68.20;;;;;;5101716;28;20275;-53
2022/03/03 07:34:34;;;;;;;5.67;3.77;;;7.20;68.10;;;;;;5098837;28;20601;-52
2022/03/03 07:37:05;;;;;;;8.30;4.63;;;7.20;68.30;;;;;;5092934;28;20209;-51
2022/03/03 07:39:40;;;;;;;9.17;4.30;;;7.20;68.40;;;;;;5097885;28;20202;-53
2022/03/03 07:42:11;;;;;;;6.40;3.70;;;7.30;68.50;;;;;;5095075;28;20194;-49
2022/03/03 07:44:38;;;;;;;8.53;4.20;;;7.30;68.50;;;;;;5105865;28;20738;-52
2022/03/03 07:47:07;;;;;;;7.87;4.40;;;7.30;68.60;;;;;;5089280;28;20852;-49
2022/03/03 07:49:35;;;;;;;9.90;5.53;;;7.30;68.60;;;;;;5091491;28;20198;-51
2022/03/03 07:52:03;;;;;;;10.30;5.57;;;7.30;68.80;;;;;;5104514;28;20222;-51
2022/03/03 07:54:30;;;;;;;8.77;4.63;;;7.30;68.90;;;;;;5078746;28;20189;-48
2022/03/03 07:57:00;;;;;;;8.47;4.73;;;7.40;69.00;;;;;;5092279;28;20196;-49
2022/03/03 07:59:30;;;;;;;7.90;4.50;;;7.40;69.00;;;;;;5096763;28;20578;-49
2022/03/03 08:01:58;;;;;;;9.23;4.13;;;7.40;68.90;;;;;;5091453;28;20202;-51
2022/03/03 08:04:29;;;;;;;6.67;3.83;;;7.50;68.90;;;;;;5088726;28;20631;-49
2022/03/03 08:07:04;;;;;;;7.17;4.30;;;7.50;68.70;;;;;;5089588;28;20220;-47
2022/03/03 08:09:32;;;;;;;6.97;4.07;;;7.60;68.90;;;;;;5118955;27;20205;-50
2022/03/03 08:12:04;;;;;;;8.30;4.33;;;7.60;68.90;;;;;;5088960;28;20189;-45
2022/03/03 08:14:32;;;;;;;6.60;4.03;;;7.50;68.90;;;;;;5089526;28;20185;-49
2022/03/03 08:17:00;;;;;;;8.63;4.43;;;7.50;69.00;;;;;;5088182;28;20213;-46
2022/03/03 08:19:28;;;;;;;5.67;3.87;;;7.50;69.00;;;;;;5090588;28;20225;-49
2022/03/03 08:21:55;;;;;;;8.50;4.27;;;7.50;69.10;;;;;;5088266;28;20208;-49
2022/03/03 08:24:22;;;;;;;6.67;3.60;;;7.60;69.30;;;;;;5084076;28;20563;-48
2022/03/03 08:26:49;;;;;;;8.53;4.50;;;7.60;69.40;;;;;;5081153;28;20201;-52
2022/03/03 08:29:18;;;;;;;8.23;4.73;;;7.60;69.40;;;;;;5087772;28;20193;-54
2022/03/03 08:31:50;;;;;;;7.23;4.20;;;7.60;69.50;;;;;;5089569;28;20315;-48
2022/03/03 08:34:29;;;;;;;7.50;4.47;;;7.60;69.70;;;;;;5085350;28;20223;-52
2022/03/03 08:37:00;;;;;;;7.63;4.27;;;7.60;69.80;;;;;;5088534;28;20668;-52
2022/03/03 08:39:29;;;;;;;9.10;5.17;;;7.60;70.00;;;;;;5086309;28;20204;-53
2022/03/03 08:41:57;;;;;;;6.90;4.53;;;7.60;70.00;;;;;;5089611;28;20200;-52
2022/03/03 08:44:28;;;;;;;8.53;4.80;;;7.70;70.20;;;;;;5093612;28;20206;-50
2022/03/03 08:46:58;;;;;;;5.93;4.43;;;7.70;70.60;;;;;;5086984;28;20283;-51
2022/03/03 08:49:30;;;;;;;8.00;4.80;;;7.70;70.60;;;;;;5086712;28;20190;-52
2022/03/03 08:51:58;;;;;;;7.93;4.47;;;7.70;70.60;;;;;;5091473;28;20195;-52
2022/03/03 08:54:25;;;;;;;8.03;4.43;;;7.70;70.70;;;;;;5091863;28;20211;-54
2022/03/03 08:56:52;;;;;;;7.13;4.63;;;7.80;70.90;;;;;;5089026;28;20211;-51
2022/03/03 08:59:19;;;;;;;14.87;6.67;;;7.80;71.00;;;;;;5082719;28;20223;-53
2022/03/03 09:01:49;;;;;;;10.70;6.00;;;7.80;71.30;;;;;;5078617;28;20201;-54
2022/03/03 09:04:16;;;;;;;15.53;6.00;;;7.80;71.60;;;;;;5088480;28;20222;-53
2022/03/03 09:06:43;;;;;;;11.87;5.67;;;7.80;71.70;;;;;;5091923;28;20559;-51
2022/03/03 09:09:12;;;;;;;8.10;4.90;;;7.80;72.00;;;;;;5086293;28;20253;-52
2022/03/03 09:11:40;;;;;;;10.43;4.93;;;7.80;72.10;;;;;;5088129;28;20200;-52
2022/03/03 09:14:08;;;;;;;16.87;6.20;;;7.80;72.20;;;;;;5089231;28;20201;-53
2022/03/03 09:16:36;;;;;;;10.43;5.70;;;7.80;72.60;;;;;;5087626;28;20263;-54
2022/03/03 09:19:04;;;;;;;7.07;4.50;;;7.80;72.80;;;;;;5090102;28;20265;-53
2022/03/03 09:21:32;;;;;;;7.67;4.23;;;7.80;72.80;;;;;;5088187;28;20275;-54
2022/03/03 09:23:59;;;;;;;6.43;4.23;;;7.90;72.90;;;;;;5083784;28;20184;-53
2022/03/03 09:26:27;;;;;;;9.77;5.60;;;7.90;72.80;;;;;;5085376;28;20204;-54
2022/03/03 09:28:55;;;;;;;15.47;6.90;;;8.00;73.20;;;;;;5084027;28;20211;-53
2022/03/03 09:31:22;;;;;;;10.47;6.30;;;8.00;73.50;;;;;;5089013;28;20189;-54
2022/03/03 09:33:50;;;;;;;17.30;8.23;;;8.10;73.90;;;;;;5088087;28;20657;-53
2022/03/03 09:36:19;;;;;;;11.67;6.17;;;8.10;74.20;;;;;;5086651;28;20534;-54
2022/03/03 09:38:46;;;;;;;13.27;7.40;;;8.00;74.40;;;;;;5085615;28;20191;-52
2022/03/03 09:41:13;;;;;;;16.13;7.37;;;8.00;74.90;;;;;;5090952;28;20226;-52
2022/03/03 09:43:41;;;;;;;16.30;8.00;;;7.90;75.50;;;;;;5089815;28;20195;-51
2022/03/03 09:46:10;;;;;;;14.30;7.20;;;7.90;76.00;;;;;;5088896;28;20669;-53
2022/03/03 09:48:38;;;;;;;23.27;8.77;;;7.90;76.50;;;;;;5089178;28;20288;-52
2022/03/03 09:51:05;;;;;;;15.67;7.80;;;7.90;77.00;;;;;;5084759;28;20200;-50
2022/03/03 09:53:33;;;;;;;15.40;6.77;;;7.80;77.20;;;;;;5082872;28;20277;-50
2022/03/03 09:56:01;;;;;;;16.27;7.53;;;7.80;77.30;;;;;;5092272;28;20201;-52
2022/03/03 09:58:28;;;;;;;11.73;6.33;;;7.80;77.70;;;;;;5082569;28;20184;-50
2022/03/03 10:00:57;;;;;;;20.83;8.10;;;7.80;77.80;;;;;;5092133;28;20625;-54
2022/03/03 10:03:33;;;;;;;13.27;6.90;;;7.80;78.70;;;;;;5087758;28;20200;-55
2022/03/03 10:06:00;;;;;;;8.70;4.83;;;7.90;79.40;;;;;;5092799;28;20324;-53
2022/03/03 10:08:29;;;;;;;7.27;4.30;;;7.80;79.50;;;;;;5088600;28;20208;-53
2022/03/03 10:11:00;;;;;;;8.37;4.23;;;7.90;80.00;;;;;;5091540;28;20885;-51
2022/03/03 10:13:28;;;;;;;6.10;3.87;;;7.90;80.50;;;;;;5094340;28;21151;-52
2022/03/03 10:15:59;;;;;;;5.00;3.30;;;7.90;80.90;;;;;;5088807;28;20206;-50
2022/03/03 10:18:27;;;;;;;12.33;3.67;;;7.90;81.50;;;;;;5094789;28;20195;-53
2022/03/03 10:20:56;;;;;;;8.77;3.73;;;8.00;81.80;;;;;;5094233;28;20218;-53
2022/03/03 10:23:27;;;;;;;8.30;3.90;;;8.30;82.50;;;;;;5087998;28;20597;-51
2022/03/03 10:25:56;;;;;;;9.87;3.83;;;8.50;82.40;;;;;;5090324;28;20658;-48
2022/03/03 10:28:26;;;;;;;8.50;3.30;;;8.50;82.20;;;;;;5099745;28;20282;-49
2022/03/03 10:30:58;;;;;;;7.13;3.80;;;8.60;82.00;;;;;;5089324;28;20196;-48
2022/03/03 10:33:28;;;;;;;6.00;3.70;;;8.60;82.00;;;;;;5088693;28;20196;-47
2022/03/03 10:36:18;;;;;;;5.10;3.50;;;8.60;82.10;;;;;;5089383;28;20207;-53
2022/03/03 10:38:51;;;;;;;6.30;3.50;;;8.60;82.40;;;;;;5086011;28;20221;-52
2022/03/03 10:41:38;;;;;;;5.33;3.60;;;8.60;82.10;;;;;;5090295;28;20222;-54
2022/03/03 10:44:09;;;;;;;7.00;3.47;;;8.50;82.00;;;;;;5093048;28;20188;-53
2022/03/03 10:46:37;;;;;;;8.67;3.73;;;8.50;82.10;;;;;;5089884;28;20208;-53
2022/03/03 10:49:18;;;;;;;8.23;3.97;;;8.50;82.40;;;;;;5095399;28;20191;-51
2022/03/03 10:51:45;;;;;;;4.90;3.17;;;9.00;82.50;;;;;;5090581;28;20563;-48
2022/03/03 10:54:12;;;;;;;10.83;3.60;;;9.40;80.60;;;;;;5092732;28;20204;-53
2022/03/03 10:56:47;;;;;;;9.57;3.70;;;9.50;79.50;;;;;;5084901;28;20200;-53
2022/03/03 10:59:22;;;;;;;9.17;4.60;;;9.50;79.10;;;;;;5087900;28;20203;-52
2022/03/03 11:01:51;;;;;;;7.07;3.63;;;9.40;78.80;;;;;;5085868;28;20198;-52
2022/03/03 11:04:19;;;;;;;7.63;3.73;;;9.30;78.70;;;;;;5087109;28;20323;-54
2022/03/03 11:06:49;;;;;;;6.40;3.40;;;9.30;78.40;;;;;;5095303;28;20193;-47
2022/03/03 11:09:17;;;;;;;5.13;3.50;;;9.30;78.10;;;;;;5085000;28;20196;-49
2022/03/03 11:11:44;;;;;;;7.67;3.40;;;9.50;77.70;;;;;;5092839;28;20207;-50
2022/03/03 11:14:12;;;;;;;9.53;3.27;;;9.70;76.80;;;;;;5092026;28;20254;-50
2022/03/03 11:16:41;;;;;;;7.20;3.40;;;10.10;75.40;;;;;;5091925;28;20681;-53
2022/03/03 11:19:10;;;;;;;5.90;3.70;;;10.60;74.60;;;;;;5100950;28;20236;-53
2022/03/03 11:21:39;;;;;;;6.77;3.13;;;11.30;72.50;;;;;;5092205;28;20220;-46
2022/03/03 11:24:08;;;;;;;5.20;3.07;;;12.20;69.10;;;;;;5089734;28;20214;-49
2022/03/03 11:26:44;;;;;;;5.57;3.03;;;12.80;67.00;;;;;;5085627;28;20206;-52
2022/03/03 11:29:13;;;;;;;4.17;2.90;;;13.20;65.20;;;;;;5085635;28;20696;-49
2022/03/03 11:31:43;;;;;;;6.07;2.83;;;13.60;64.50;;;;;;5089495;28;20196;-51
2022/03/03 11:34:21;;;;;;;5.43;2.97;;;14.10;62.40;;;;;;5083799;28;20206;-53
2022/03/03 11:36:49;;;;;;;8.83;3.13;;;14.30;60.00;;;;;;5086109;28;20193;-49
2022/03/03 11:39:42;;;;;;;8.73;3.00;;;14.20;59.60;;;;;;5087564;28;20194;-54
2022/03/03 11:42:25;;;;;;;5.10;3.40;;;14.30;59.70;;;;;;5067761;28;20234;-51
2022/03/03 11:44:54;;;;;;;4.17;3.10;;;14.80;59.20;;;;;;5074188;28;20197;-52
2022/03/03 11:47:25;;;;;;;8.50;3.70;;;15.30;58.00;;;;;;5086265;28;20226;-53
2022/03/03 11:50:06;;;;;;;8.43;3.63;;;15.50;57.10;;;;;;5094539;28;20180;-55
2022/03/03 11:52:34;;;;;;;5.70;3.50;;;15.60;56.80;;;;;;5087995;28;20198;-54
2022/03/03 11:55:28;;;;;;;4.90;2.67;;;15.50;56.50;;;;;;5097072;28;20298;-55
2022/03/03 11:57:58;;;;;;;10.30;3.37;;;15.20;56.40;;;;;;5087059;28;20591;-51
2022/03/03 12:00:25;;;;;;;3.87;3.17;;;15.40;56.60;;;;;;5095281;28;20218;-52
2022/03/03 12:03:02;;;;;;;16.13;3.17;;;16.00;55.50;;;;;;5089967;28;20663;-52
2022/03/03 12:05:35;;;;;;;12.23;3.07;;;16.30;54.60;;;;;;5090230;28;20344;-54
2022/03/03 12:08:05;;;;;;;12.83;3.43;;;16.50;53.90;;;;;;5088262;28;20219;-53
2022/03/03 12:10:33;;;;;;;2.40;2.20;;;16.30;52.90;;;;;;5095090;28;20195;-54
2022/03/03 12:13:26;;;;;;;3.17;2.50;;;16.00;53.50;;;;;;5090724;28;20196;-53
2022/03/03 12:16:18;;;;;;;6.40;2.70;;;15.80;54.00;;;;;;5107779;27;20223;-52
2022/03/03 12:18:48;;;;;;;4.43;3.00;;;15.50;54.10;;;;;;5084772;28;20207;-51
2022/03/03 12:21:26;;;;;;;6.43;2.93;;;15.40;54.20;;;;;;5089490;28;20219;-50
2022/03/03 12:24:22;;;;;;;7.63;2.93;;;15.20;54.50;;;;;;5100958;28;20289;-52
2022/03/03 12:26:59;;;;;;;5.53;2.73;;;15.10;54.50;;;;;;5076345;28;20556;-53
2022/03/03 12:29:31;;;;;;;4.03;2.40;;;15.00;54.80;;;;;;5085784;28;20438;-53
2022/03/03 12:31:58;;;;;;;4.43;1.97;;;14.90;55.00;;;;;;5089515;28;20551;-52
2022/03/03 12:34:27;;;;;;;3.27;2.00;;;14.70;55.30;;;;;;5090084;28;20193;-51
2022/03/03 12:36:55;;;;;;;4.00;2.37;;;14.60;55.40;;;;;;5085003;28;20199;-51
2022/03/03 12:39:22;;;;;;;3.13;2.30;;;14.60;55.50;;;;;;5087447;28;20199;-52
2022/03/03 12:41:53;;;;;;;7.87;2.40;;;14.70;55.40;;;;;;5084416;28;20637;-50
2022/03/03 12:44:20;;;;;;;3.07;2.40;;;14.90;55.20;;;;;;5095143;28;20206;-49
2022/03/03 12:46:47;;;;;;;3.37;2.50;;;15.30;55.00;;;;;;5103971;28;20252;-53
2022/03/03 12:49:16;;;;;;;6.63;2.40;;;16.10;54.10;;;;;;5091971;28;20209;-48
2022/03/03 12:51:46;;;;;;;7.30;2.67;;;16.70;53.10;;;;;;5076106;28;20702;-53
2022/03/03 12:54:13;;;;;;;8.63;2.77;;;17.00;52.30;;;;;;5086536;28;20196;-50
2022/03/03 12:56:41;;;;;;;4.03;2.70;;;17.30;51.60;;;;;;5081095;28;20285;-53
2022/03/03 12:59:09;;;;;;;3.77;2.57;;;17.50;51.30;;;;;;5093502;28;20203;-51
2022/03/03 13:01:37;;;;;;;4.40;2.43;;;17.70;51.20;;;;;;5090206;28;20232;-50
2022/03/03 13:04:05;;;;;;;6.00;2.80;;;18.00;50.40;;;;;;5089699;28;20629;-53
2022/03/03 13:06:33;;;;;;;2.33;2.13;;;17.90;50.00;;;;;;5082406;28;20204;-51
2022/03/03 13:09:05;;;;;;;2.10;1.90;;;17.60;50.30;;;;;;5087610;28;20192;-50